sensor_id;sensor_type;location;lat;lon;timestamp;temperature;humidity
25550;DHT22;13444;50.562;7.262;2023-12-29T00:00:35;9.90;36.90
25550;DHT22;13444;50.562;7.262;2023-12-29T00:03:00;9.90;40.80
25550;DHT22;13444;50.562;7.262;2023-12-29T00:05:26;9.80;43.20
25550;DHT22;13444;50.562;7.262;2023-12-29T00:07:52;9.90;44.10
25550;DHT22;13444;50.562;7.262;2023-12-29T00:10:18;9.80;47.60
25550;DHT22;13444;50.562;7.262;2023-12-29T00:12:44;9.80;48.50
25550;DHT22;13444;50.562;7.262;2023-12-29T00:15:10;9.90;52.20
25550;DHT22;13444;50.562;7.262;2023-12-29T00:17:35;9.90;52.50
25550;DHT22;13444;50.562;7.262;2023-12-29T00:20:04;9.90;51.00
25550;DHT22;13444;50.562;7.262;2023-12-29T00:22:30;9.90;53.20
25550;DHT22;13444;50.562;7.262;2023-12-29T00:24:55;9.90;53.10
25550;DHT22;13444;50.562;7.262;2023-12-29T00:27:21;10.00;53.90
25550;DHT22;13444;50.562;7.262;2023-12-29T00:29:46;10.00;54.50
25550;DHT22;13444;50.562;7.262;2023-12-29T00:32:12;9.90;56.50
25550;DHT22;13444;50.562;7.262;2023-12-29T00:34:37;10.00;56.00
25550;DHT22;13444;50.562;7.262;2023-12-29T00:37:03;10.00;54.30
25550;DHT22;13444;50.562;7.262;2023-12-29T00:39:28;10.10;51.20
25550;DHT22;13444;50.562;7.262;2023-12-29T00:41:56;10.20;45.30
25550;DHT22;13444;50.562;7.262;2023-12-29T00:44:23;10.20;47.80
25550;DHT22;13444;50.562;7.262;2023-12-29T00:46:49;10.20;43.50
25550;DHT22;13444;50.562;7.262;2023-12-29T00:49:14;10.20;46.10
25550;DHT22;13444;50.562;7.262;2023-12-29T00:51:40;10.20;48.00
25550;DHT22;13444;50.562;7.262;2023-12-29T00:54:08;10.20;42.10
25550;DHT22;13444;50.562;7.262;2023-12-29T00:56:34;10.30;43.00
25550;DHT22;13444;50.562;7.262;2023-12-29T00:58:59;10.20;43.30
25550;DHT22;13444;50.562;7.262;2023-12-29T01:01:25;10.30;40.30
25550;DHT22;13444;50.562;7.262;2023-12-29T01:03:50;10.20;41.70
25550;DHT22;13444;50.562;7.262;2023-12-29T01:06:20;10.20;41.90
25550;DHT22;13444;50.562;7.262;2023-12-29T01:08:45;10.20;44.30
25550;DHT22;13444;50.562;7.262;2023-12-29T01:11:11;10.30;43.20
25550;DHT22;13444;50.562;7.262;2023-12-29T01:13:36;10.30;45.10
25550;DHT22;13444;50.562;7.262;2023-12-29T01:16:02;10.30;47.50
25550;DHT22;13444;50.562;7.262;2023-12-29T01:18:28;10.30;46.90
25550;DHT22;13444;50.562;7.262;2023-12-29T01:20:53;10.30;47.60
25550;DHT22;13444;50.562;7.262;2023-12-29T01:23:19;10.40;44.20
25550;DHT22;13444;50.562;7.262;2023-12-29T01:25:44;10.40;46.30
25550;DHT22;13444;50.562;7.262;2023-12-29T01:28:10;10.40;42.30
25550;DHT22;13444;50.562;7.262;2023-12-29T01:30:36;10.40;39.90
25550;DHT22;13444;50.562;7.262;2023-12-29T01:33:01;10.50;39.80
25550;DHT22;13444;50.562;7.262;2023-12-29T01:35:27;10.50;38.00
25550;DHT22;13444;50.562;7.262;2023-12-29T01:37:52;10.60;31.90
25550;DHT22;13444;50.562;7.262;2023-12-29T01:40:20;10.60;29.80
25550;DHT22;13444;50.562;7.262;2023-12-29T01:42:46;10.70;21.60
25550;DHT22;13444;50.562;7.262;2023-12-29T01:45:23;10.70;25.00
25550;DHT22;13444;50.562;7.262;2023-12-29T01:47:50;10.80;22.10
25550;DHT22;13444;50.562;7.262;2023-12-29T01:50:21;10.90;16.20
25550;DHT22;13444;50.562;7.262;2023-12-29T01:52:48;11.00;12.50
25550;DHT22;13444;50.562;7.262;2023-12-29T01:55:18;10.90;17.70
25550;DHT22;13444;50.562;7.262;2023-12-29T01:57:44;10.90;20.00
25550;DHT22;13444;50.562;7.262;2023-12-29T02:00:12;10.80;24.20
25550;DHT22;13444;50.562;7.262;2023-12-29T02:02:38;10.80;24.80
25550;DHT22;13444;50.562;7.262;2023-12-29T02:05:04;10.80;23.80
25550;DHT22;13444;50.562;7.262;2023-12-29T02:07:30;10.80;25.90
25550;DHT22;13444;50.562;7.262;2023-12-29T02:10:00;10.80;28.70
25550;DHT22;13444;50.562;7.262;2023-12-29T02:12:26;10.80;29.80
25550;DHT22;13444;50.562;7.262;2023-12-29T02:14:52;10.80;24.90
25550;DHT22;13444;50.562;7.262;2023-12-29T02:17:25;10.80;24.80
25550;DHT22;13444;50.562;7.262;2023-12-29T02:19:52;10.80;23.70
25550;DHT22;13444;50.562;7.262;2023-12-29T02:22:18;10.90;22.20
25550;DHT22;13444;50.562;7.262;2023-12-29T02:24:46;10.80;21.50
25550;DHT22;13444;50.562;7.262;2023-12-29T02:27:21;10.90;18.10
25550;DHT22;13444;50.562;7.262;2023-12-29T02:30:06;11.00;16.20
25550;DHT22;13444;50.562;7.262;2023-12-29T02:32:35;11.00;15.20
25550;DHT22;13444;50.562;7.262;2023-12-29T02:35:02;11.00;13.60
25550;DHT22;13444;50.562;7.262;2023-12-29T02:37:29;11.00;15.50
25550;DHT22;13444;50.562;7.262;2023-12-29T02:39:58;11.00;16.20
25550;DHT22;13444;50.562;7.262;2023-12-29T02:42:24;11.10;14.90
25550;DHT22;13444;50.562;7.262;2023-12-29T02:44:49;11.00;18.60
25550;DHT22;13444;50.562;7.262;2023-12-29T02:47:15;11.00;17.00
25550;DHT22;13444;50.562;7.262;2023-12-29T02:49:43;11.00;18.40
25550;DHT22;13444;50.562;7.262;2023-12-29T02:52:08;11.00;18.40
25550;DHT22;13444;50.562;7.262;2023-12-29T02:54:34;11.00;21.40
25550;DHT22;13444;50.562;7.262;2023-12-29T02:56:59;11.00;21.70
25550;DHT22;13444;50.562;7.262;2023-12-29T02:59:25;11.10;23.40
25550;DHT22;13444;50.562;7.262;2023-12-29T03:01:50;11.00;24.80
25550;DHT22;13444;50.562;7.262;2023-12-29T03:04:16;11.00;24.00
25550;DHT22;13444;50.562;7.262;2023-12-29T03:06:42;11.10;22.30
25550;DHT22;13444;50.562;7.262;2023-12-29T03:09:07;11.10;19.30
25550;DHT22;13444;50.562;7.262;2023-12-29T03:11:33;11.20;13.90
25550;DHT22;13444;50.562;7.262;2023-12-29T03:13:58;11.20;12.20
25550;DHT22;13444;50.562;7.262;2023-12-29T03:16:24;11.20;13.50
25550;DHT22;13444;50.562;7.262;2023-12-29T03:18:49;11.20;14.90
25550;DHT22;13444;50.562;7.262;2023-12-29T03:21:15;11.20;13.90
25550;DHT22;13444;50.562;7.262;2023-12-29T03:23:40;11.20;17.10
25550;DHT22;13444;50.562;7.262;2023-12-29T03:26:05;11.20;18.60
25550;DHT22;13444;50.562;7.262;2023-12-29T03:28:31;11.20;16.00
25550;DHT22;13444;50.562;7.262;2023-12-29T03:30:57;11.20;13.80
25550;DHT22;13444;50.562;7.262;2023-12-29T03:33:22;11.20;13.60
25550;DHT22;13444;50.562;7.262;2023-12-29T03:35:47;11.30;13.00
25550;DHT22;13444;50.562;7.262;2023-12-29T03:38:13;11.30;11.90
25550;DHT22;13444;50.562;7.262;2023-12-29T03:40:40;11.30;12.00
25550;DHT22;13444;50.562;7.262;2023-12-29T03:43:05;11.20;13.70
25550;DHT22;13444;50.562;7.262;2023-12-29T03:45:31;11.20;12.20
25550;DHT22;13444;50.562;7.262;2023-12-29T03:47:56;11.30;6.90
25550;DHT22;13444;50.562;7.262;2023-12-29T03:50:22;11.30;7.30
25550;DHT22;13444;50.562;7.262;2023-12-29T03:52:47;11.30;5.90
25550;DHT22;13444;50.562;7.262;2023-12-29T03:55:13;11.30;4.50
25550;DHT22;13444;50.562;7.262;2023-12-29T03:57:39;11.30;6.00
25550;DHT22;13444;50.562;7.262;2023-12-29T04:00:05;11.30;7.00
25550;DHT22;13444;50.562;7.262;2023-12-29T04:02:31;11.30;9.00
25550;DHT22;13444;50.562;7.262;2023-12-29T04:04:58;11.30;6.80
25550;DHT22;13444;50.562;7.262;2023-12-29T04:07:23;11.30;10.80
25550;DHT22;13444;50.562;7.262;2023-12-29T04:09:49;11.20;13.10
25550;DHT22;13444;50.562;7.262;2023-12-29T04:12:14;11.20;12.80
25550;DHT22;13444;50.562;7.262;2023-12-29T04:14:40;11.20;12.90
25550;DHT22;13444;50.562;7.262;2023-12-29T04:17:05;11.30;15.60
25550;DHT22;13444;50.562;7.262;2023-12-29T04:19:39;11.20;16.40
25550;DHT22;13444;50.562;7.262;2023-12-29T04:22:06;11.20;17.30
25550;DHT22;13444;50.562;7.262;2023-12-29T04:24:32;11.30;19.70
25550;DHT22;13444;50.562;7.262;2023-12-29T04:26:58;11.30;17.60
25550;DHT22;13444;50.562;7.262;2023-12-29T04:29:23;11.30;19.40
25550;DHT22;13444;50.562;7.262;2023-12-29T04:31:49;11.30;23.30
25550;DHT22;13444;50.562;7.262;2023-12-29T04:34:14;11.20;25.70
25550;DHT22;13444;50.562;7.262;2023-12-29T04:36:40;11.30;23.50
25550;DHT22;13444;50.562;7.262;2023-12-29T04:39:06;11.30;28.40
25550;DHT22;13444;50.562;7.262;2023-12-29T04:41:34;11.30;27.00
25550;DHT22;13444;50.562;7.262;2023-12-29T04:44:00;11.30;27.80
25550;DHT22;13444;50.562;7.262;2023-12-29T04:46:25;11.30;30.30
25550;DHT22;13444;50.562;7.262;2023-12-29T04:48:51;11.30;33.70
25550;DHT22;13444;50.562;7.262;2023-12-29T04:51:16;11.20;39.10
25550;DHT22;13444;50.562;7.262;2023-12-29T04:53:42;11.20;40.20
25550;DHT22;13444;50.562;7.262;2023-12-29T04:56:07;11.20;43.30
25550;DHT22;13444;50.562;7.262;2023-12-29T04:58:33;11.20;44.30
25550;DHT22;13444;50.562;7.262;2023-12-29T05:00:58;11.20;47.50
25550;DHT22;13444;50.562;7.262;2023-12-29T05:03:24;11.10;51.70
25550;DHT22;13444;50.562;7.262;2023-12-29T05:05:50;11.20;48.40
25550;DHT22;13444;50.562;7.262;2023-12-29T05:08:15;11.20;50.80
25550;DHT22;13444;50.562;7.262;2023-12-29T05:10:41;11.20;50.80
25550;DHT22;13444;50.562;7.262;2023-12-29T05:13:06;11.10;53.80
25550;DHT22;13444;50.562;7.262;2023-12-29T05:15:32;11.20;50.00
25550;DHT22;13444;50.562;7.262;2023-12-29T05:17:57;11.20;50.60
25550;DHT22;13444;50.562;7.262;2023-12-29T05:20:23;11.10;50.20
25550;DHT22;13444;50.562;7.262;2023-12-29T05:22:48;11.10;53.30
25550;DHT22;13444;50.562;7.262;2023-12-29T05:25:14;11.10;55.80
25550;DHT22;13444;50.562;7.262;2023-12-29T05:27:39;11.10;55.80
25550;DHT22;13444;50.562;7.262;2023-12-29T05:30:05;11.10;53.90
25550;DHT22;13444;50.562;7.262;2023-12-29T05:32:31;11.00;54.20
25550;DHT22;13444;50.562;7.262;2023-12-29T05:34:57;11.00;56.00
25550;DHT22;13444;50.562;7.262;2023-12-29T05:37:23;11.00;54.40
25550;DHT22;13444;50.562;7.262;2023-12-29T05:39:48;11.00;55.10
25550;DHT22;13444;50.562;7.262;2023-12-29T05:42:14;11.00;55.70
25550;DHT22;13444;50.562;7.262;2023-12-29T05:44:39;11.00;54.50
25550;DHT22;13444;50.562;7.262;2023-12-29T05:47:05;11.10;51.80
25550;DHT22;13444;50.562;7.262;2023-12-29T05:49:30;11.10;51.50
25550;DHT22;13444;50.562;7.262;2023-12-29T05:51:57;11.10;53.20
25550;DHT22;13444;50.562;7.262;2023-12-29T05:54:23;11.10;57.00
25550;DHT22;13444;50.562;7.262;2023-12-29T05:56:50;11.10;53.80
25550;DHT22;13444;50.562;7.262;2023-12-29T05:59:15;11.10;55.20
25550;DHT22;13444;50.562;7.262;2023-12-29T06:01:41;11.10;57.30
25550;DHT22;13444;50.562;7.262;2023-12-29T06:04:07;11.00;60.20
25550;DHT22;13444;50.562;7.262;2023-12-29T06:06:32;11.00;61.20
25550;DHT22;13444;50.562;7.262;2023-12-29T06:08:58;11.00;62.30
25550;DHT22;13444;50.562;7.262;2023-12-29T06:11:23;11.00;62.50
25550;DHT22;13444;50.562;7.262;2023-12-29T06:13:49;11.00;62.80
25550;DHT22;13444;50.562;7.262;2023-12-29T06:16:21;11.00;64.30
25550;DHT22;13444;50.562;7.262;2023-12-29T06:18:47;11.00;63.50
25550;DHT22;13444;50.562;7.262;2023-12-29T06:21:13;11.00;63.50
25550;DHT22;13444;50.562;7.262;2023-12-29T06:23:39;11.10;64.80
25550;DHT22;13444;50.562;7.262;2023-12-29T06:26:04;11.00;67.40
25550;DHT22;13444;50.562;7.262;2023-12-29T06:28:29;11.10;68.00
25550;DHT22;13444;50.562;7.262;2023-12-29T06:30:55;11.10;65.80
25550;DHT22;13444;50.562;7.262;2023-12-29T06:33:20;11.10;65.80
25550;DHT22;13444;50.562;7.262;2023-12-29T06:35:47;11.10;66.00
25550;DHT22;13444;50.562;7.262;2023-12-29T06:38:13;11.20;65.90
25550;DHT22;13444;50.562;7.262;2023-12-29T06:40:38;11.20;66.60
25550;DHT22;13444;50.562;7.262;2023-12-29T06:43:04;11.20;69.60
25550;DHT22;13444;50.562;7.262;2023-12-29T06:45:30;11.20;71.50
25550;DHT22;13444;50.562;7.262;2023-12-29T06:47:55;11.10;74.60
25550;DHT22;13444;50.562;7.262;2023-12-29T06:50:21;11.10;73.90
25550;DHT22;13444;50.562;7.262;2023-12-29T06:52:46;11.10;74.90
25550;DHT22;13444;50.562;7.262;2023-12-29T06:55:12;11.10;73.00
25550;DHT22;13444;50.562;7.262;2023-12-29T06:57:37;11.10;72.50
25550;DHT22;13444;50.562;7.262;2023-12-29T07:00:04;11.20;76.20
25550;DHT22;13444;50.562;7.262;2023-12-29T07:02:29;11.10;78.70
25550;DHT22;13444;50.562;7.262;2023-12-29T07:04:56;11.10;78.80
25550;DHT22;13444;50.562;7.262;2023-12-29T07:07:21;11.10;81.50
25550;DHT22;13444;50.562;7.262;2023-12-29T07:09:47;11.10;81.90
25550;DHT22;13444;50.562;7.262;2023-12-29T07:12:12;11.10;85.70
25550;DHT22;13444;50.562;7.262;2023-12-29T07:14:38;11.00;88.70
25550;DHT22;13444;50.562;7.262;2023-12-29T07:17:03;11.00;90.10
25550;DHT22;13444;50.562;7.262;2023-12-29T07:19:29;11.00;91.00
25550;DHT22;13444;50.562;7.262;2023-12-29T07:22:04;11.00;91.10
25550;DHT22;13444;50.562;7.262;2023-12-29T07:24:32;11.00;91.10
25550;DHT22;13444;50.562;7.262;2023-12-29T07:26:57;11.10;90.00
25550;DHT22;13444;50.562;7.262;2023-12-29T07:29:23;11.00;90.20
25550;DHT22;13444;50.562;7.262;2023-12-29T07:31:49;11.00;92.30
25550;DHT22;13444;50.562;7.262;2023-12-29T07:34:14;10.90;95.10
25550;DHT22;13444;50.562;7.262;2023-12-29T07:36:40;10.80;97.00
25550;DHT22;13444;50.562;7.262;2023-12-29T07:39:06;10.80;98.30
25550;DHT22;13444;50.562;7.262;2023-12-29T07:41:31;10.70;99.30
25550;DHT22;13444;50.562;7.262;2023-12-29T07:43:57;10.70;99.90
25550;DHT22;13444;50.562;7.262;2023-12-29T07:46:26;10.70;99.90
25550;DHT22;13444;50.562;7.262;2023-12-29T07:48:52;10.60;99.90
25550;DHT22;13444;50.562;7.262;2023-12-29T07:51:18;10.60;99.90
25550;DHT22;13444;50.562;7.262;2023-12-29T07:53:43;10.60;99.90
25550;DHT22;13444;50.562;7.262;2023-12-29T07:56:11;10.60;99.90
25550;DHT22;13444;50.562;7.262;2023-12-29T07:58:36;10.60;99.90
25550;DHT22;13444;50.562;7.262;2023-12-29T08:01:02;10.60;99.90
25550;DHT22;13444;50.562;7.262;2023-12-29T08:03:27;10.60;99.90
25550;DHT22;13444;50.562;7.262;2023-12-29T08:05:53;10.60;99.90
25550;DHT22;13444;50.562;7.262;2023-12-29T08:08:18;10.60;99.90
25550;DHT22;13444;50.562;7.262;2023-12-29T08:10:44;10.60;99.90
25550;DHT22;13444;50.562;7.262;2023-12-29T08:13:09;10.60;99.90
25550;DHT22;13444;50.562;7.262;2023-12-29T08:15:35;10.60;99.90
25550;DHT22;13444;50.562;7.262;2023-12-29T08:18:01;10.60;99.90
25550;DHT22;13444;50.562;7.262;2023-12-29T08:20:26;10.60;99.90
25550;DHT22;13444;50.562;7.262;2023-12-29T08:22:52;10.60;99.90
25550;DHT22;13444;50.562;7.262;2023-12-29T08:25:17;10.70;99.90
25550;DHT22;13444;50.562;7.262;2023-12-29T08:27:43;10.70;99.90
25550;DHT22;13444;50.562;7.262;2023-12-29T08:30:09;10.70;99.90
25550;DHT22;13444;50.562;7.262;2023-12-29T08:32:34;10.80;99.90
25550;DHT22;13444;50.562;7.262;2023-12-29T08:35:00;10.80;99.90
25550;DHT22;13444;50.562;7.262;2023-12-29T08:37:25;10.80;99.90
25550;DHT22;13444;50.562;7.262;2023-12-29T08:39:51;10.80;99.90
25550;DHT22;13444;50.562;7.262;2023-12-29T08:42:17;10.80;99.90
25550;DHT22;13444;50.562;7.262;2023-12-29T08:44:43;10.80;99.90
25550;DHT22;13444;50.562;7.262;2023-12-29T08:47:08;10.80;99.90
25550;DHT22;13444;50.562;7.262;2023-12-29T08:49:36;10.80;99.90
25550;DHT22;13444;50.562;7.262;2023-12-29T08:52:01;10.80;99.90
25550;DHT22;13444;50.562;7.262;2023-12-29T08:54:27;10.80;99.90
25550;DHT22;13444;50.562;7.262;2023-12-29T08:56:53;10.80;99.90
25550;DHT22;13444;50.562;7.262;2023-12-29T08:59:18;10.90;99.90
25550;DHT22;13444;50.562;7.262;2023-12-29T09:01:44;10.90;99.90
25550;DHT22;13444;50.562;7.262;2023-12-29T09:04:09;11.00;96.70
25550;DHT22;13444;50.562;7.262;2023-12-29T09:06:35;11.10;93.60
25550;DHT22;13444;50.562;7.262;2023-12-29T09:09:00;11.10;87.50
25550;DHT22;13444;50.562;7.262;2023-12-29T09:11:26;11.30;80.40
25550;DHT22;13444;50.562;7.262;2023-12-29T09:13:52;11.40;74.50
25550;DHT22;13444;50.562;7.262;2023-12-29T09:16:18;11.50;73.80
25550;DHT22;13444;50.562;7.262;2023-12-29T09:18:43;11.50;68.20
25550;DHT22;13444;50.562;7.262;2023-12-29T09:21:09;11.50;67.90
25550;DHT22;13444;50.562;7.262;2023-12-29T09:23:34;11.60;62.20
25550;DHT22;13444;50.562;7.262;2023-12-29T09:26:02;11.60;58.90
25550;DHT22;13444;50.562;7.262;2023-12-29T09:28:28;11.60;63.70
25550;DHT22;13444;50.562;7.262;2023-12-29T09:30:53;11.70;59.10
25550;DHT22;13444;50.562;7.262;2023-12-29T09:33:19;11.70;54.80
25550;DHT22;13444;50.562;7.262;2023-12-29T09:35:44;11.80;81.90
25550;DHT22;13444;50.562;7.262;2023-12-29T09:38:10;11.70;59.70
25550;DHT22;13444;50.562;7.262;2023-12-29T09:40:36;11.80;59.00
25550;DHT22;13444;50.562;7.262;2023-12-29T09:43:03;11.80;52.50
25550;DHT22;13444;50.562;7.262;2023-12-29T09:45:30;11.90;51.40
25550;DHT22;13444;50.562;7.262;2023-12-29T09:47:58;11.90;55.00
25550;DHT22;13444;50.562;7.262;2023-12-29T09:50:26;11.90;54.50
25550;DHT22;13444;50.562;7.262;2023-12-29T09:52:53;11.90;55.70
25550;DHT22;13444;50.562;7.262;2023-12-29T09:55:19;11.90;52.00
25550;DHT22;13444;50.562;7.262;2023-12-29T09:57:47;11.90;54.10
25550;DHT22;13444;50.562;7.262;2023-12-29T10:02:51;11.90;52.00
25550;DHT22;13444;50.562;7.262;2023-12-29T10:05:18;12.00;52.40
25550;DHT22;13444;50.562;7.262;2023-12-29T10:07:45;12.10;50.60
25550;DHT22;13444;50.562;7.262;2023-12-29T10:10:15;12.10;42.10
25550;DHT22;13444;50.562;7.262;2023-12-29T10:12:47;12.10;40.10
25550;DHT22;13444;50.562;7.262;2023-12-29T10:15:20;12.10;39.90
25550;DHT22;13444;50.562;7.262;2023-12-29T10:18:07;12.20;31.90
25550;DHT22;13444;50.562;7.262;2023-12-29T10:21:02;12.20;30.60
25550;DHT22;13444;50.562;7.262;2023-12-29T10:26:03;12.40;18.30
25550;DHT22;13444;50.562;7.262;2023-12-29T10:28:29;12.50;20.10
25550;DHT22;13444;50.562;7.262;2023-12-29T10:30:54;12.60;17.50
25550;DHT22;13444;50.562;7.262;2023-12-29T10:33:21;12.80;7.60
25550;DHT22;13444;50.562;7.262;2023-12-29T10:36:00;12.80;2.80
25550;DHT22;13444;50.562;7.262;2023-12-29T10:38:30;12.80;8.90
25550;DHT22;13444;50.562;7.262;2023-12-29T10:41:16;12.90;2.40
25550;DHT22;13444;50.562;7.262;2023-12-29T10:43:43;13.10;1.00
25550;DHT22;13444;50.562;7.262;2023-12-29T10:46:10;13.10;1.00
25550;DHT22;13444;50.562;7.262;2023-12-29T10:48:39;13.10;1.00
25550;DHT22;13444;50.562;7.262;2023-12-29T10:51:05;13.30;1.00
25550;DHT22;13444;50.562;7.262;2023-12-29T10:53:35;13.40;1.00
25550;DHT22;13444;50.562;7.262;2023-12-29T10:56:00;13.50;1.00
25550;DHT22;13444;50.562;7.262;2023-12-29T10:58:27;13.50;1.00
25550;DHT22;13444;50.562;7.262;2023-12-29T11:00:57;13.40;1.00
25550;DHT22;13444;50.562;7.262;2023-12-29T11:03:23;13.30;1.00
25550;DHT22;13444;50.562;7.262;2023-12-29T11:05:50;13.10;1.00
25550;DHT22;13444;50.562;7.262;2023-12-29T11:08:21;13.00;1.00
25550;DHT22;13444;50.562;7.262;2023-12-29T11:10:48;13.00;1.00
25550;DHT22;13444;50.562;7.262;2023-12-29T11:13:14;13.00;1.00
25550;DHT22;13444;50.562;7.262;2023-12-29T11:15:43;13.20;1.00
25550;DHT22;13444;50.562;7.262;2023-12-29T11:18:13;13.30;1.00
25550;DHT22;13444;50.562;7.262;2023-12-29T11:20:39;13.30;1.00
25550;DHT22;13444;50.562;7.262;2023-12-29T11:23:06;13.30;1.00
25550;DHT22;13444;50.562;7.262;2023-12-29T11:25:33;13.40;1.00
25550;DHT22;13444;50.562;7.262;2023-12-29T11:28:00;13.30;1.00
25550;DHT22;13444;50.562;7.262;2023-12-29T11:30:26;13.40;1.00
25550;DHT22;13444;50.562;7.262;2023-12-29T11:36:00;13.30;1.00
25550;DHT22;13444;50.562;7.262;2023-12-29T11:44:52;13.40;1.00
25550;DHT22;13444;50.562;7.262;2023-12-29T11:47:37;13.40;1.00
25550;DHT22;13444;50.562;7.262;2023-12-29T11:50:04;13.50;1.00
25550;DHT22;13444;50.562;7.262;2023-12-29T11:52:38;13.50;1.00
25550;DHT22;13444;50.562;7.262;2023-12-29T11:55:09;13.40;1.00
25550;DHT22;13444;50.562;7.262;2023-12-29T11:57:35;13.40;1.00
25550;DHT22;13444;50.562;7.262;2023-12-29T12:00:02;13.40;1.00
25550;DHT22;13444;50.562;7.262;2023-12-29T12:02:30;13.30;1.00
25550;DHT22;13444;50.562;7.262;2023-12-29T12:04:56;13.30;1.00
25550;DHT22;13444;50.562;7.262;2023-12-29T12:09:47;13.10;1.00
25550;DHT22;13444;50.562;7.262;2023-12-29T12:12:41;13.10;1.00
25550;DHT22;13444;50.562;7.262;2023-12-29T12:18:03;13.00;2.80
25550;DHT22;13444;50.562;7.262;2023-12-29T12:20:31;13.00;7.70
25550;DHT22;13444;50.562;7.262;2023-12-29T12:22:58;12.90;9.60
25550;DHT22;13444;50.562;7.262;2023-12-29T12:25:26;12.90;8.90
25550;DHT22;13444;50.562;7.262;2023-12-29T12:27:53;12.80;6.30
25550;DHT22;13444;50.562;7.262;2023-12-29T12:30:19;12.80;6.60
25550;DHT22;13444;50.562;7.262;2023-12-29T12:32:46;12.80;11.60
25550;DHT22;13444;50.562;7.262;2023-12-29T12:35:15;12.80;13.80
25550;DHT22;13444;50.562;7.262;2023-12-29T12:37:44;12.80;14.30
25550;DHT22;13444;50.562;7.262;2023-12-29T12:40:10;12.80;15.80
25550;DHT22;13444;50.562;7.262;2023-12-29T12:42:38;12.80;14.00
25550;DHT22;13444;50.562;7.262;2023-12-29T12:45:12;12.80;7.50
25550;DHT22;13444;50.562;7.262;2023-12-29T12:47:46;12.70;9.80
25550;DHT22;13444;50.562;7.262;2023-12-29T12:50:16;12.70;12.20
25550;DHT22;13444;50.562;7.262;2023-12-29T12:52:41;12.70;12.20
25550;DHT22;13444;50.562;7.262;2023-12-29T12:55:08;12.80;12.80
25550;DHT22;13444;50.562;7.262;2023-12-29T12:57:34;12.80;5.50
25550;DHT22;13444;50.562;7.262;2023-12-29T13:00:01;12.80;6.60
25550;DHT22;13444;50.562;7.262;2023-12-29T13:02:28;12.90;11.40
25550;DHT22;13444;50.562;7.262;2023-12-29T13:04:55;12.90;7.50
25550;DHT22;13444;50.562;7.262;2023-12-29T13:07:21;12.90;7.40
25550;DHT22;13444;50.562;7.262;2023-12-29T13:09:47;13.00;5.90
25550;DHT22;13444;50.562;7.262;2023-12-29T13:12:15;13.00;3.10
25550;DHT22;13444;50.562;7.262;2023-12-29T13:14:42;13.00;4.30
25550;DHT22;13444;50.562;7.262;2023-12-29T13:17:09;13.00;6.40
25550;DHT22;13444;50.562;7.262;2023-12-29T13:19:37;13.00;7.40
25550;DHT22;13444;50.562;7.262;2023-12-29T13:22:06;13.00;12.90
25550;DHT22;13444;50.562;7.262;2023-12-29T13:24:33;13.00;16.40
25550;DHT22;13444;50.562;7.262;2023-12-29T13:27:05;13.00;14.50
25550;DHT22;13444;50.562;7.262;2023-12-29T13:29:31;12.90;15.10
25550;DHT22;13444;50.562;7.262;2023-12-29T13:32:21;12.90;19.80
25550;DHT22;13444;50.562;7.262;2023-12-29T13:35:10;12.90;18.60
25550;DHT22;13444;50.562;7.262;2023-12-29T13:37:51;12.80;22.10
25550;DHT22;13444;50.562;7.262;2023-12-29T13:40:26;12.80;25.80
25550;DHT22;13444;50.562;7.262;2023-12-29T13:42:57;12.90;25.00
25550;DHT22;13444;50.562;7.262;2023-12-29T13:45:24;12.90;21.20
25550;DHT22;13444;50.562;7.262;2023-12-29T13:47:51;12.90;21.60
25550;DHT22;13444;50.562;7.262;2023-12-29T13:50:17;12.80;24.70
25550;DHT22;13444;50.562;7.262;2023-12-29T13:52:43;12.80;22.50
25550;DHT22;13444;50.562;7.262;2023-12-29T13:55:09;12.80;20.00
25550;DHT22;13444;50.562;7.262;2023-12-29T13:57:35;12.80;26.40
25550;DHT22;13444;50.562;7.262;2023-12-29T14:00:18;12.80;26.90
25550;DHT22;13444;50.562;7.262;2023-12-29T14:10:30;12.60;32.20
25550;DHT22;13444;50.562;7.262;2023-12-29T14:13:04;12.60;29.30
25550;DHT22;13444;50.562;7.262;2023-12-29T14:15:37;12.60;30.10
25550;DHT22;13444;50.562;7.262;2023-12-29T14:20:37;12.60;31.80
25550;DHT22;13444;50.562;7.262;2023-12-29T14:23:03;12.50;29.90
25550;DHT22;13444;50.562;7.262;2023-12-29T14:25:33;12.50;34.50
25550;DHT22;13444;50.562;7.262;2023-12-29T14:28:01;12.50;37.70
25550;DHT22;13444;50.562;7.262;2023-12-29T14:30:27;12.60;46.40
25550;DHT22;13444;50.562;7.262;2023-12-29T14:32:59;12.50;43.40
25550;DHT22;13444;50.562;7.262;2023-12-29T14:35:25;12.50;38.70
25550;DHT22;13444;50.562;7.262;2023-12-29T14:37:50;12.60;50.70
25550;DHT22;13444;50.562;7.262;2023-12-29T14:40:16;12.60;38.10
25550;DHT22;13444;50.562;7.262;2023-12-29T14:42:41;12.60;35.10
25550;DHT22;13444;50.562;7.262;2023-12-29T14:45:08;12.50;40.00
25550;DHT22;13444;50.562;7.262;2023-12-29T14:47:34;12.50;40.30
25550;DHT22;13444;50.562;7.262;2023-12-29T14:50:00;12.40;40.70
25550;DHT22;13444;50.562;7.262;2023-12-29T14:52:26;12.40;47.50
25550;DHT22;13444;50.562;7.262;2023-12-29T14:54:52;12.30;48.10
25550;DHT22;13444;50.562;7.262;2023-12-29T14:57:17;12.40;51.90
25550;DHT22;13444;50.562;7.262;2023-12-29T14:59:43;12.30;52.60
25550;DHT22;13444;50.562;7.262;2023-12-29T15:02:09;12.30;51.20
25550;DHT22;13444;50.562;7.262;2023-12-29T15:04:35;12.30;57.20
25550;DHT22;13444;50.562;7.262;2023-12-29T15:07:01;12.20;60.00
25550;DHT22;13444;50.562;7.262;2023-12-29T15:09:27;12.20;60.00
25550;DHT22;13444;50.562;7.262;2023-12-29T15:11:52;12.20;63.90
25550;DHT22;13444;50.562;7.262;2023-12-29T15:14:19;12.20;64.90
25550;DHT22;13444;50.562;7.262;2023-12-29T15:16:45;12.20;65.20
25550;DHT22;13444;50.562;7.262;2023-12-29T15:19:11;12.10;73.20
25550;DHT22;13444;50.562;7.262;2023-12-29T15:21:41;12.20;75.20
25550;DHT22;13444;50.562;7.262;2023-12-29T15:24:06;12.10;75.40
25550;DHT22;13444;50.562;7.262;2023-12-29T15:26:32;12.10;59.20
25550;DHT22;13444;50.562;7.262;2023-12-29T15:28:58;12.10;57.80
25550;DHT22;13444;50.562;7.262;2023-12-29T15:31:23;12.10;61.50
25550;DHT22;13444;50.562;7.262;2023-12-29T15:33:50;12.10;66.80
25550;DHT22;13444;50.562;7.262;2023-12-29T15:36:15;12.10;67.90
25550;DHT22;13444;50.562;7.262;2023-12-29T15:38:46;12.10;76.10
25550;DHT22;13444;50.562;7.262;2023-12-29T15:41:11;12.00;79.30
25550;DHT22;13444;50.562;7.262;2023-12-29T15:43:37;12.00;73.70
25550;DHT22;13444;50.562;7.262;2023-12-29T15:46:03;11.90;74.90
25550;DHT22;13444;50.562;7.262;2023-12-29T15:48:28;11.90;82.90
25550;DHT22;13444;50.562;7.262;2023-12-29T15:50:56;11.90;87.80
25550;DHT22;13444;50.562;7.262;2023-12-29T15:53:21;11.90;90.20
25550;DHT22;13444;50.562;7.262;2023-12-29T15:55:47;11.80;88.30
25550;DHT22;13444;50.562;7.262;2023-12-29T15:58:12;11.90;83.50
25550;DHT22;13444;50.562;7.262;2023-12-29T16:00:38;11.90;82.20
25550;DHT22;13444;50.562;7.262;2023-12-29T16:03:03;11.90;88.30